sensor_id;sensor_type;location;lat;lon;timestamp;temperature;humidity
9919;DHT22;4998;51.024;13.828;2024-03-06T00:00:09;8.80;72.50
9919;DHT22;4998;51.024;13.828;2024-03-06T00:02:36;8.70;72.50
9919;DHT22;4998;51.024;13.828;2024-03-06T00:05:04;8.70;72.60
9919;DHT22;4998;51.024;13.828;2024-03-06T00:07:33;8.70;72.70
9919;DHT22;4998;51.024;13.828;2024-03-06T00:10:00;8.60;72.70
9919;DHT22;4998;51.024;13.828;2024-03-06T00:12:27;8.60;72.80
9919;DHT22;4998;51.024;13.828;2024-03-06T00:14:54;8.60;72.90
9919;DHT22;4998;51.024;13.828;2024-03-06T00:17:23;8.60;73.00
9919;DHT22;4998;51.024;13.828;2024-03-06T00:19:50;8.50;73.00
9919;DHT22;4998;51.024;13.828;2024-03-06T00:22:17;8.50;73.00
9919;DHT22;4998;51.024;13.828;2024-03-06T00:24:44;8.50;73.30
9919;DHT22;4998;51.024;13.828;2024-03-06T00:27:11;8.50;73.30
9919;DHT22;4998;51.024;13.828;2024-03-06T00:29:38;8.50;73.30
9919;DHT22;4998;51.024;13.828;2024-03-06T00:32:05;8.50;73.30
9919;DHT22;4998;51.024;13.828;2024-03-06T00:34:34;8.50;73.40
9919;DHT22;4998;51.024;13.828;2024-03-06T00:37:01;8.40;73.40
9919;DHT22;4998;51.024;13.828;2024-03-06T00:39:28;8.40;73.60
9919;DHT22;4998;51.024;13.828;2024-03-06T00:41:56;8.40;73.60
9919;DHT22;4998;51.024;13.828;2024-03-06T00:44:23;8.40;73.70
9919;DHT22;4998;51.024;13.828;2024-03-06T00:46:50;8.40;73.80
9919;DHT22;4998;51.024;13.828;2024-03-06T00:49:17;8.50;73.90
9919;DHT22;4998;51.024;13.828;2024-03-06T00:51:45;8.50;74.00
9919;DHT22;4998;51.024;13.828;2024-03-06T00:54:12;8.50;74.10
9919;DHT22;4998;51.024;13.828;2024-03-06T00:56:39;8.50;74.00
9919;DHT22;4998;51.024;13.828;2024-03-06T00:59:07;8.50;74.00
9919;DHT22;4998;51.024;13.828;2024-03-06T01:01:33;8.50;74.00
9919;DHT22;4998;51.024;13.828;2024-03-06T01:04:00;8.50;73.90
9919;DHT22;4998;51.024;13.828;2024-03-06T01:06:27;8.50;73.90
9919;DHT22;4998;51.024;13.828;2024-03-06T01:08:56;8.50;73.90
9919;DHT22;4998;51.024;13.828;2024-03-06T01:11:24;8.50;73.90
9919;DHT22;4998;51.024;13.828;2024-03-06T01:13:52;8.50;73.90
9919;DHT22;4998;51.024;13.828;2024-03-06T01:16:19;8.50;73.70
9919;DHT22;4998;51.024;13.828;2024-03-06T01:18:46;8.50;73.60
9919;DHT22;4998;51.024;13.828;2024-03-06T01:21:13;8.40;73.50
9919;DHT22;4998;51.024;13.828;2024-03-06T01:23:41;8.40;73.60
9919;DHT22;4998;51.024;13.828;2024-03-06T01:26:10;8.30;73.50
9919;DHT22;4998;51.024;13.828;2024-03-06T01:28:37;8.20;73.70
9919;DHT22;4998;51.024;13.828;2024-03-06T01:31:04;8.20;73.80
9919;DHT22;4998;51.024;13.828;2024-03-06T01:33:32;8.10;73.80
9919;DHT22;4998;51.024;13.828;2024-03-06T01:35:59;8.10;74.00
9919;DHT22;4998;51.024;13.828;2024-03-06T01:38:26;8.00;74.00
9919;DHT22;4998;51.024;13.828;2024-03-06T01:40:53;8.00;74.20
9919;DHT22;4998;51.024;13.828;2024-03-06T01:43:23;8.00;74.40
9919;DHT22;4998;51.024;13.828;2024-03-06T01:45:51;8.00;74.50
9919;DHT22;4998;51.024;13.828;2024-03-06T01:48:21;7.90;74.50
9919;DHT22;4998;51.024;13.828;2024-03-06T01:50:51;7.90;74.60
9919;DHT22;4998;51.024;13.828;2024-03-06T01:53:19;7.90;74.60
9919;DHT22;4998;51.024;13.828;2024-03-06T01:55:48;7.90;74.70
9919;DHT22;4998;51.024;13.828;2024-03-06T01:58:15;7.90;74.90
9919;DHT22;4998;51.024;13.828;2024-03-06T02:00:44;7.90;75.00
9919;DHT22;4998;51.024;13.828;2024-03-06T02:03:11;7.80;75.10
9919;DHT22;4998;51.024;13.828;2024-03-06T02:05:39;7.80;75.20
9919;DHT22;4998;51.024;13.828;2024-03-06T02:08:07;7.80;75.40
9919;DHT22;4998;51.024;13.828;2024-03-06T02:10:34;7.80;75.50
9919;DHT22;4998;51.024;13.828;2024-03-06T02:13:02;7.80;75.60
9919;DHT22;4998;51.024;13.828;2024-03-06T02:15:29;7.70;75.60
9919;DHT22;4998;51.024;13.828;2024-03-06T02:17:58;7.80;75.60
9919;DHT22;4998;51.024;13.828;2024-03-06T02:20:27;7.70;75.70
9919;DHT22;4998;51.024;13.828;2024-03-06T02:22:54;7.70;75.50
9919;DHT22;4998;51.024;13.828;2024-03-06T02:25:21;7.70;75.50
9919;DHT22;4998;51.024;13.828;2024-03-06T02:27:48;7.60;75.50
9919;DHT22;4998;51.024;13.828;2024-03-06T02:30:18;7.60;75.70
9919;DHT22;4998;51.024;13.828;2024-03-06T02:32:46;7.60;75.80
9919;DHT22;4998;51.024;13.828;2024-03-06T02:35:13;7.60;76.00
9919;DHT22;4998;51.024;13.828;2024-03-06T02:37:43;7.50;75.90
9919;DHT22;4998;51.024;13.828;2024-03-06T02:40:11;7.50;76.20
9919;DHT22;4998;51.024;13.828;2024-03-06T02:42:38;7.50;76.20
9919;DHT22;4998;51.024;13.828;2024-03-06T02:45:06;7.50;76.30
9919;DHT22;4998;51.024;13.828;2024-03-06T02:47:34;7.50;76.50
9919;DHT22;4998;51.024;13.828;2024-03-06T02:50:01;7.50;76.60
9919;DHT22;4998;51.024;13.828;2024-03-06T02:52:28;7.40;76.50
9919;DHT22;4998;51.024;13.828;2024-03-06T02:54:57;7.40;76.60
9919;DHT22;4998;51.024;13.828;2024-03-06T02:57:27;7.40;76.80
9919;DHT22;4998;51.024;13.828;2024-03-06T02:59:55;7.40;76.90
9919;DHT22;4998;51.024;13.828;2024-03-06T03:02:22;7.40;76.90
9919;DHT22;4998;51.024;13.828;2024-03-06T03:04:50;7.40;76.80
9919;DHT22;4998;51.024;13.828;2024-03-06T03:07:17;7.40;76.90
9919;DHT22;4998;51.024;13.828;2024-03-06T03:09:45;7.30;76.80
9919;DHT22;4998;51.024;13.828;2024-03-06T03:12:14;7.30;76.80
9919;DHT22;4998;51.024;13.828;2024-03-06T03:14:41;7.30;77.00
9919;DHT22;4998;51.024;13.828;2024-03-06T03:17:08;7.30;76.90
9919;DHT22;4998;51.024;13.828;2024-03-06T03:19:35;7.30;77.10
9919;DHT22;4998;51.024;13.828;2024-03-06T03:22:05;7.20;77.10
9919;DHT22;4998;51.024;13.828;2024-03-06T03:24:33;7.20;77.20
9919;DHT22;4998;51.024;13.828;2024-03-06T03:27:00;7.20;77.30
9919;DHT22;4998;51.024;13.828;2024-03-06T03:29:29;7.20;77.30
9919;DHT22;4998;51.024;13.828;2024-03-06T03:31:56;7.20;77.20
9919;DHT22;4998;51.024;13.828;2024-03-06T03:34:23;7.10;76.90
9919;DHT22;4998;51.024;13.828;2024-03-06T03:36:50;7.10;77.00
9919;DHT22;4998;51.024;13.828;2024-03-06T03:39:17;7.10;77.00
9919;DHT22;4998;51.024;13.828;2024-03-06T03:41:48;7.00;76.90
9919;DHT22;4998;51.024;13.828;2024-03-06T03:44:16;6.90;76.60
9919;DHT22;4998;51.024;13.828;2024-03-06T03:46:45;6.80;76.80
9919;DHT22;4998;51.024;13.828;2024-03-06T03:49:13;6.80;77.10
9919;DHT22;4998;51.024;13.828;2024-03-06T03:51:40;6.70;77.20
9919;DHT22;4998;51.024;13.828;2024-03-06T03:54:07;6.60;77.30
9919;DHT22;4998;51.024;13.828;2024-03-06T03:56:34;6.60;77.60
9919;DHT22;4998;51.024;13.828;2024-03-06T03:59:02;6.60;77.90
9919;DHT22;4998;51.024;13.828;2024-03-06T04:01:29;6.50;78.10
9919;DHT22;4998;51.024;13.828;2024-03-06T04:03:57;6.50;78.30
9919;DHT22;4998;51.024;13.828;2024-03-06T04:06:24;6.50;78.60
9919;DHT22;4998;51.024;13.828;2024-03-06T04:08:51;6.50;78.70
9919;DHT22;4998;51.024;13.828;2024-03-06T04:11:18;6.70;79.20
9919;DHT22;4998;51.024;13.828;2024-03-06T04:13:45;6.50;79.20
9919;DHT22;4998;51.024;13.828;2024-03-06T04:16:16;6.50;79.30
9919;DHT22;4998;51.024;13.828;2024-03-06T04:18:44;6.60;79.70
9919;DHT22;4998;51.024;13.828;2024-03-06T04:21:13;6.60;79.60
9919;DHT22;4998;51.024;13.828;2024-03-06T04:23:41;6.60;79.80
9919;DHT22;4998;51.024;13.828;2024-03-06T04:26:08;6.60;79.70
9919;DHT22;4998;51.024;13.828;2024-03-06T04:28:35;6.60;79.60
9919;DHT22;4998;51.024;13.828;2024-03-06T04:31:02;6.60;79.60
9919;DHT22;4998;51.024;13.828;2024-03-06T04:33:30;6.70;80.00
9919;DHT22;4998;51.024;13.828;2024-03-06T04:35:56;6.70;80.00
9919;DHT22;4998;51.024;13.828;2024-03-06T04:38:25;6.70;80.00
9919;DHT22;4998;51.024;13.828;2024-03-06T04:40:52;6.70;80.10
9919;DHT22;4998;51.024;13.828;2024-03-06T04:43:19;6.70;80.00
9919;DHT22;4998;51.024;13.828;2024-03-06T04:45:46;6.70;80.00
9919;DHT22;4998;51.024;13.828;2024-03-06T04:48:13;6.60;79.80
9919;DHT22;4998;51.024;13.828;2024-03-06T04:50:40;6.60;80.00
9919;DHT22;4998;51.024;13.828;2024-03-06T04:53:08;6.50;80.20
9919;DHT22;4998;51.024;13.828;2024-03-06T04:55:37;6.60;80.40
9919;DHT22;4998;51.024;13.828;2024-03-06T04:58:05;6.60;81.50
9919;DHT22;4998;51.024;13.828;2024-03-06T05:00:32;6.60;80.60
9919;DHT22;4998;51.024;13.828;2024-03-06T05:02:59;6.60;80.70
9919;DHT22;4998;51.024;13.828;2024-03-06T05:05:27;6.60;80.90
9919;DHT22;4998;51.024;13.828;2024-03-06T05:07:55;6.60;80.90
9919;DHT22;4998;51.024;13.828;2024-03-06T05:10:22;6.60;80.90
9919;DHT22;4998;51.024;13.828;2024-03-06T05:12:50;6.70;81.00
9919;DHT22;4998;51.024;13.828;2024-03-06T05:15:17;6.70;81.00
9919;DHT22;4998;51.024;13.828;2024-03-06T05:17:45;6.70;80.80
9919;DHT22;4998;51.024;13.828;2024-03-06T05:20:13;6.70;80.70
9919;DHT22;4998;51.024;13.828;2024-03-06T05:22:40;6.70;80.70
9919;DHT22;4998;51.024;13.828;2024-03-06T05:25:07;6.70;80.70
9919;DHT22;4998;51.024;13.828;2024-03-06T05:27:34;6.60;80.60
9919;DHT22;4998;51.024;13.828;2024-03-06T05:30:03;6.60;80.60
9919;DHT22;4998;51.024;13.828;2024-03-06T05:32:31;6.60;80.70
9919;DHT22;4998;51.024;13.828;2024-03-06T05:34:58;6.60;80.60
9919;DHT22;4998;51.024;13.828;2024-03-06T05:37:25;6.60;80.50
9919;DHT22;4998;51.024;13.828;2024-03-06T05:39:54;6.50;80.40
9919;DHT22;4998;51.024;13.828;2024-03-06T05:42:21;6.50;80.40
9919;DHT22;4998;51.024;13.828;2024-03-06T05:44:48;6.50;80.40
9919;DHT22;4998;51.024;13.828;2024-03-06T05:47:17;6.50;80.60
9919;DHT22;4998;51.024;13.828;2024-03-06T05:49:45;6.40;80.70
9919;DHT22;4998;51.024;13.828;2024-03-06T05:52:13;6.40;80.70
9919;DHT22;4998;51.024;13.828;2024-03-06T05:54:40;6.40;81.00
9919;DHT22;4998;51.024;13.828;2024-03-06T05:57:07;6.30;81.00
9919;DHT22;4998;51.024;13.828;2024-03-06T05:59:34;6.40;81.30
9919;DHT22;4998;51.024;13.828;2024-03-06T06:02:03;6.40;81.50
9919;DHT22;4998;51.024;13.828;2024-03-06T06:04:32;6.40;81.50
9919;DHT22;4998;51.024;13.828;2024-03-06T06:06:59;6.30;81.60
9919;DHT22;4998;51.024;13.828;2024-03-06T06:09:26;6.30;81.70
9919;DHT22;4998;51.024;13.828;2024-03-06T06:11:53;6.40;82.10
9919;DHT22;4998;51.024;13.828;2024-03-06T06:14:20;6.30;82.10
9919;DHT22;4998;51.024;13.828;2024-03-06T06:16:47;6.40;82.40
9919;DHT22;4998;51.024;13.828;2024-03-06T06:19:14;6.40;82.40
9919;DHT22;4998;51.024;13.828;2024-03-06T06:21:43;6.40;82.40
9919;DHT22;4998;51.024;13.828;2024-03-06T06:24:10;6.40;82.40
9919;DHT22;4998;51.024;13.828;2024-03-06T06:26:37;6.50;82.40
9919;DHT22;4998;51.024;13.828;2024-03-06T06:29:05;6.50;82.40
9919;DHT22;4998;51.024;13.828;2024-03-06T06:31:32;6.50;82.50
9919;DHT22;4998;51.024;13.828;2024-03-06T06:33:59;6.50;82.60
9919;DHT22;4998;51.024;13.828;2024-03-06T06:36:26;6.50;82.70
9919;DHT22;4998;51.024;13.828;2024-03-06T06:38:55;6.50;82.80
9919;DHT22;4998;51.024;13.828;2024-03-06T06:41:22;6.60;83.20
9919;DHT22;4998;51.024;13.828;2024-03-06T06:43:50;6.70;83.40
9919;DHT22;4998;51.024;13.828;2024-03-06T06:46:18;6.70;83.60
9919;DHT22;4998;51.024;13.828;2024-03-06T06:48:46;6.80;83.80
9919;DHT22;4998;51.024;13.828;2024-03-06T06:51:14;6.80;83.90
9919;DHT22;4998;51.024;13.828;2024-03-06T06:53:41;6.90;84.20
9919;DHT22;4998;51.024;13.828;2024-03-06T06:56:10;7.00;84.20
9919;DHT22;4998;51.024;13.828;2024-03-06T06:58:37;7.10;84.30
9919;DHT22;4998;51.024;13.828;2024-03-06T07:01:08;7.10;84.20
9919;DHT22;4998;51.024;13.828;2024-03-06T07:03:35;7.20;84.20
9919;DHT22;4998;51.024;13.828;2024-03-06T07:06:02;7.30;84.20
9919;DHT22;4998;51.024;13.828;2024-03-06T07:08:30;7.40;84.20
9919;DHT22;4998;51.024;13.828;2024-03-06T07:10:57;7.50;84.20
9919;DHT22;4998;51.024;13.828;2024-03-06T07:13:25;7.50;84.00
9919;DHT22;4998;51.024;13.828;2024-03-06T07:15:52;7.60;84.00
9919;DHT22;4998;51.024;13.828;2024-03-06T07:18:19;7.70;83.80
9919;DHT22;4998;51.024;13.828;2024-03-06T07:20:47;7.70;83.70
9919;DHT22;4998;51.024;13.828;2024-03-06T07:23:14;7.80;83.70
9919;DHT22;4998;51.024;13.828;2024-03-06T07:25:41;7.90;83.60
9919;DHT22;4998;51.024;13.828;2024-03-06T07:28:08;7.90;83.60
9919;DHT22;4998;51.024;13.828;2024-03-06T07:30:37;8.00;83.60
9919;DHT22;4998;51.024;13.828;2024-03-06T07:33:04;8.10;83.50
9919;DHT22;4998;51.024;13.828;2024-03-06T07:35:32;8.10;83.30
9919;DHT22;4998;51.024;13.828;2024-03-06T07:38:02;8.20;83.20
9919;DHT22;4998;51.024;13.828;2024-03-06T07:40:30;8.30;82.70
9919;DHT22;4998;51.024;13.828;2024-03-06T07:42:57;8.30;82.90
9919;DHT22;4998;51.024;13.828;2024-03-06T07:45:25;8.40;83.00
9919;DHT22;4998;51.024;13.828;2024-03-06T07:47:54;8.40;82.90
9919;DHT22;4998;51.024;13.828;2024-03-06T07:50:21;8.50;82.90
9919;DHT22;4998;51.024;13.828;2024-03-06T07:52:48;8.50;82.80
9919;DHT22;4998;51.024;13.828;2024-03-06T07:55:15;8.60;82.70
9919;DHT22;4998;51.024;13.828;2024-03-06T07:57:44;8.60;82.50
9919;DHT22;4998;51.024;13.828;2024-03-06T08:00:12;8.70;82.50
9919;DHT22;4998;51.024;13.828;2024-03-06T08:02:41;8.70;82.30
9919;DHT22;4998;51.024;13.828;2024-03-06T08:05:11;8.70;82.80
9919;DHT22;4998;51.024;13.828;2024-03-06T08:07:39;8.80;81.70
9919;DHT22;4998;51.024;13.828;2024-03-06T08:10:08;8.80;81.30
9919;DHT22;4998;51.024;13.828;2024-03-06T08:12:39;8.80;81.10
9919;DHT22;4998;51.024;13.828;2024-03-06T08:15:07;8.70;81.10
9919;DHT22;4998;51.024;13.828;2024-03-06T08:17:38;8.70;81.20
9919;DHT22;4998;51.024;13.828;2024-03-06T08:20:07;8.60;81.30
9919;DHT22;4998;51.024;13.828;2024-03-06T08:22:38;8.60;81.60
9919;DHT22;4998;51.024;13.828;2024-03-06T08:25:06;8.60;81.70
9919;DHT22;4998;51.024;13.828;2024-03-06T08:27:34;8.70;81.70
9919;DHT22;4998;51.024;13.828;2024-03-06T08:30:02;8.70;81.70
9919;DHT22;4998;51.024;13.828;2024-03-06T08:32:30;8.70;81.70
9919;DHT22;4998;51.024;13.828;2024-03-06T08:34:58;8.70;81.60
9919;DHT22;4998;51.024;13.828;2024-03-06T08:37:25;8.70;81.70
9919;DHT22;4998;51.024;13.828;2024-03-06T08:39:54;8.70;81.80
9919;DHT22;4998;51.024;13.828;2024-03-06T08:42:21;8.80;82.00
9919;DHT22;4998;51.024;13.828;2024-03-06T08:44:48;8.80;82.10
9919;DHT22;4998;51.024;13.828;2024-03-06T08:47:15;8.80;82.20
9919;DHT22;4998;51.024;13.828;2024-03-06T08:49:42;8.90;82.40
9919;DHT22;4998;51.024;13.828;2024-03-06T08:52:09;8.90;82.50
9919;DHT22;4998;51.024;13.828;2024-03-06T08:54:36;8.90;82.40
9919;DHT22;4998;51.024;13.828;2024-03-06T08:57:05;8.90;82.40
9919;DHT22;4998;51.024;13.828;2024-03-06T08:59:34;9.00;82.20
9919;DHT22;4998;51.024;13.828;2024-03-06T09:02:12;9.00;82.00
9919;DHT22;4998;51.024;13.828;2024-03-06T09:04:40;9.00;82.10
9919;DHT22;4998;51.024;13.828;2024-03-06T09:07:07;9.10;82.00
9919;DHT22;4998;51.024;13.828;2024-03-06T09:09:35;9.10;82.00
9919;DHT22;4998;51.024;13.828;2024-03-06T09:12:02;9.10;82.00
9919;DHT22;4998;51.024;13.828;2024-03-06T09:14:33;9.20;82.10
9919;DHT22;4998;51.024;13.828;2024-03-06T09:17:00;9.20;82.20
9919;DHT22;4998;51.024;13.828;2024-03-06T09:19:28;9.30;82.30
9919;DHT22;4998;51.024;13.828;2024-03-06T09:21:56;9.30;82.20
9919;DHT22;4998;51.024;13.828;2024-03-06T09:24:24;9.40;82.30
9919;DHT22;4998;51.024;13.828;2024-03-06T09:26:52;9.50;82.40
9919;DHT22;4998;51.024;13.828;2024-03-06T09:29:19;9.50;82.40
9919;DHT22;4998;51.024;13.828;2024-03-06T09:31:48;9.60;82.40
9919;DHT22;4998;51.024;13.828;2024-03-06T09:34:15;9.70;82.40
9919;DHT22;4998;51.024;13.828;2024-03-06T09:36:46;9.80;82.40
9919;DHT22;4998;51.024;13.828;2024-03-06T09:39:13;9.90;82.30
9919;DHT22;4998;51.024;13.828;2024-03-06T09:41:42;10.00;80.80
9919;DHT22;4998;51.024;13.828;2024-03-06T09:44:10;10.10;80.70
9919;DHT22;4998;51.024;13.828;2024-03-06T09:46:37;10.10;80.40
9919;DHT22;4998;51.024;13.828;2024-03-06T09:49:07;10.20;80.40
9919;DHT22;4998;51.024;13.828;2024-03-06T09:51:36;10.30;80.20
9919;DHT22;4998;51.024;13.828;2024-03-06T09:54:05;10.30;80.10
9919;DHT22;4998;51.024;13.828;2024-03-06T09:56:35;10.40;80.00
9919;DHT22;4998;51.024;13.828;2024-03-06T09:59:02;10.50;80.00
9919;DHT22;4998;51.024;13.828;2024-03-06T10:01:29;10.60;79.90
9919;DHT22;4998;51.024;13.828;2024-03-06T10:03:58;10.70;79.70
9919;DHT22;4998;51.024;13.828;2024-03-06T10:06:26;10.80;79.40
9919;DHT22;4998;51.024;13.828;2024-03-06T10:09:04;10.80;79.40
9919;DHT22;4998;51.024;13.828;2024-03-06T10:11:38;10.90;78.20
9919;DHT22;4998;51.024;13.828;2024-03-06T10:14:05;11.00;77.90
9919;DHT22;4998;51.024;13.828;2024-03-06T10:16:32;11.00;77.70
9919;DHT22;4998;51.024;13.828;2024-03-06T10:19:15;11.10;77.60
9919;DHT22;4998;51.024;13.828;2024-03-06T10:21:44;11.20;77.30
9919;DHT22;4998;51.024;13.828;2024-03-06T10:24:12;11.20;77.10
9919;DHT22;4998;51.024;13.828;2024-03-06T10:26:39;11.30;76.80
9919;DHT22;4998;51.024;13.828;2024-03-06T10:29:06;11.30;76.30
9919;DHT22;4998;51.024;13.828;2024-03-06T10:31:33;11.40;76.00
9919;DHT22;4998;51.024;13.828;2024-03-06T10:34:00;11.50;75.90
9919;DHT22;4998;51.024;13.828;2024-03-06T10:36:27;11.50;75.70
9919;DHT22;4998;51.024;13.828;2024-03-06T10:39:02;11.60;75.40
9919;DHT22;4998;51.024;13.828;2024-03-06T10:41:31;11.60;75.00
9919;DHT22;4998;51.024;13.828;2024-03-06T10:43:59;11.60;75.00
9919;DHT22;4998;51.024;13.828;2024-03-06T10:46:27;11.70;75.20
9919;DHT22;4998;51.024;13.828;2024-03-06T10:48:55;11.70;74.30
9919;DHT22;4998;51.024;13.828;2024-03-06T10:51:25;11.80;74.10
9919;DHT22;4998;51.024;13.828;2024-03-06T10:53:53;11.80;74.10
9919;DHT22;4998;51.024;13.828;2024-03-06T10:56:24;11.90;74.20
9919;DHT22;4998;51.024;13.828;2024-03-06T10:58:51;11.90;73.70
9919;DHT22;4998;51.024;13.828;2024-03-06T11:01:21;11.90;73.80
9919;DHT22;4998;51.024;13.828;2024-03-06T11:03:49;11.90;73.70
9919;DHT22;4998;51.024;13.828;2024-03-06T11:06:16;11.90;73.70
9919;DHT22;4998;51.024;13.828;2024-03-06T11:08:44;11.80;73.50
9919;DHT22;4998;51.024;13.828;2024-03-06T11:11:21;11.80;73.40
9919;DHT22;4998;51.024;13.828;2024-03-06T11:13:50;11.80;73.10
9919;DHT22;4998;51.024;13.828;2024-03-06T11:16:17;11.70;72.80
9919;DHT22;4998;51.024;13.828;2024-03-06T11:18:44;11.70;72.50
9919;DHT22;4998;51.024;13.828;2024-03-06T11:21:31;11.70;72.60
9919;DHT22;4998;51.024;13.828;2024-03-06T11:24:15;11.60;72.20
9919;DHT22;4998;51.024;13.828;2024-03-06T11:26:45;11.50;72.00
9919;DHT22;4998;51.024;13.828;2024-03-06T11:29:16;11.50;71.80
9919;DHT22;4998;51.024;13.828;2024-03-06T11:32:00;11.40;71.30
9919;DHT22;4998;51.024;13.828;2024-03-06T11:34:28;11.40;71.50
9919;DHT22;4998;51.024;13.828;2024-03-06T11:36:57;11.30;71.50
9919;DHT22;4998;51.024;13.828;2024-03-06T11:39:27;11.20;71.60
9919;DHT22;4998;51.024;13.828;2024-03-06T11:41:55;11.20;72.00
9919;DHT22;4998;51.024;13.828;2024-03-06T11:44:24;11.20;72.00
9919;DHT22;4998;51.024;13.828;2024-03-06T11:46:57;11.20;72.20
9919;DHT22;4998;51.024;13.828;2024-03-06T11:49:25;11.10;72.40
9919;DHT22;4998;51.024;13.828;2024-03-06T11:51:56;11.10;72.30
9919;DHT22;4998;51.024;13.828;2024-03-06T11:54:23;11.10;72.30
9919;DHT22;4998;51.024;13.828;2024-03-06T11:56:53;11.10;72.20
9919;DHT22;4998;51.024;13.828;2024-03-06T11:59:22;11.00;72.00
9919;DHT22;4998;51.024;13.828;2024-03-06T12:01:51;11.00;72.10
9919;DHT22;4998;51.024;13.828;2024-03-06T12:04:19;11.00;72.00
9919;DHT22;4998;51.024;13.828;2024-03-06T12:06:48;10.90;72.00
9919;DHT22;4998;51.024;13.828;2024-03-06T12:09:15;10.90;72.10
9919;DHT22;4998;51.024;13.828;2024-03-06T12:11:43;10.90;72.00
9919;DHT22;4998;51.024;13.828;2024-03-06T12:14:14;10.90;72.00
9919;DHT22;4998;51.024;13.828;2024-03-06T12:16:43;10.80;71.60
9919;DHT22;4998;51.024;13.828;2024-03-06T12:19:12;10.80;71.80
9919;DHT22;4998;51.024;13.828;2024-03-06T12:21:39;10.80;72.00
9919;DHT22;4998;51.024;13.828;2024-03-06T12:24:08;10.70;72.00
9919;DHT22;4998;51.024;13.828;2024-03-06T12:26:37;10.70;72.00
9919;DHT22;4998;51.024;13.828;2024-03-06T12:29:05;10.60;71.70
9919;DHT22;4998;51.024;13.828;2024-03-06T12:31:35;10.60;71.50
9919;DHT22;4998;51.024;13.828;2024-03-06T12:34:02;10.50;71.10
9919;DHT22;4998;51.024;13.828;2024-03-06T12:36:31;10.50;71.20
9919;DHT22;4998;51.024;13.828;2024-03-06T12:39:01;10.40;71.30
9919;DHT22;4998;51.024;13.828;2024-03-06T12:41:29;10.40;71.70
9919;DHT22;4998;51.024;13.828;2024-03-06T12:43:56;10.40;71.80
9919;DHT22;4998;51.024;13.828;2024-03-06T12:46:24;10.40;71.70
9919;DHT22;4998;51.024;13.828;2024-03-06T12:48:52;10.40;71.80
9919;DHT22;4998;51.024;13.828;2024-03-06T12:51:19;10.40;72.20
9919;DHT22;4998;51.024;13.828;2024-03-06T12:53:49;10.40;72.10
9919;DHT22;4998;51.024;13.828;2024-03-06T12:56:17;10.50;72.30
9919;DHT22;4998;51.024;13.828;2024-03-06T12:58:45;10.50;72.40
9919;DHT22;4998;51.024;13.828;2024-03-06T13:01:12;10.50;72.30
9919;DHT22;4998;51.024;13.828;2024-03-06T13:03:39;10.60;72.10
9919;DHT22;4998;51.024;13.828;2024-03-06T13:06:06;10.70;72.00
9919;DHT22;4998;51.024;13.828;2024-03-06T13:08:33;10.70;71.50
9919;DHT22;4998;51.024;13.828;2024-03-06T13:11:01;10.80;71.50
9919;DHT22;4998;51.024;13.828;2024-03-06T13:13:28;10.80;71.30
9919;DHT22;4998;51.024;13.828;2024-03-06T13:15:58;10.90;71.40
9919;DHT22;4998;51.024;13.828;2024-03-06T13:18:25;10.90;71.00
9919;DHT22;4998;51.024;13.828;2024-03-06T13:20:52;11.00;70.50
9919;DHT22;4998;51.024;13.828;2024-03-06T13:23:19;11.00;70.40
9919;DHT22;4998;51.024;13.828;2024-03-06T13:25:47;11.10;70.40
9919;DHT22;4998;51.024;13.828;2024-03-06T13:28:16;11.20;70.10
9919;DHT22;4998;51.024;13.828;2024-03-06T13:30:43;11.30;69.50
9919;DHT22;4998;51.024;13.828;2024-03-06T13:33:10;11.40;69.60
9919;DHT22;4998;51.024;13.828;2024-03-06T13:35:37;11.40;69.50
9919;DHT22;4998;51.024;13.828;2024-03-06T13:38:05;11.50;69.10
9919;DHT22;4998;51.024;13.828;2024-03-06T13:40:32;11.50;68.30
9919;DHT22;4998;51.024;13.828;2024-03-06T13:42:59;11.60;67.80
9919;DHT22;4998;51.024;13.828;2024-03-06T13:45:27;11.60;67.60
9919;DHT22;4998;51.024;13.828;2024-03-06T13:47:54;11.60;67.40
9919;DHT22;4998;51.024;13.828;2024-03-06T13:50:21;11.60;67.80
9919;DHT22;4998;51.024;13.828;2024-03-06T13:52:51;11.70;67.80
9919;DHT22;4998;51.024;13.828;2024-03-06T13:55:18;11.70;66.90
9919;DHT22;4998;51.024;13.828;2024-03-06T13:57:45;11.80;66.90
9919;DHT22;4998;51.024;13.828;2024-03-06T14:00:13;11.80;66.50
9919;DHT22;4998;51.024;13.828;2024-03-06T14:02:44;11.80;66.20
9919;DHT22;4998;51.024;13.828;2024-03-06T14:05:12;11.80;65.50
9919;DHT22;4998;51.024;13.828;2024-03-06T14:07:40;11.70;65.50
9919;DHT22;4998;51.024;13.828;2024-03-06T14:10:08;11.70;65.40
9919;DHT22;4998;51.024;13.828;2024-03-06T14:12:36;11.70;65.20
9919;DHT22;4998;51.024;13.828;2024-03-06T14:15:04;11.60;64.80
9919;DHT22;4998;51.024;13.828;2024-03-06T14:17:34;11.60;64.50
9919;DHT22;4998;51.024;13.828;2024-03-06T14:20:03;11.60;64.50
9919;DHT22;4998;51.024;13.828;2024-03-06T14:22:30;11.50;63.60
9919;DHT22;4998;51.024;13.828;2024-03-06T14:24:58;11.50;63.30
9919;DHT22;4998;51.024;13.828;2024-03-06T14:27:25;11.50;63.10
9919;DHT22;4998;51.024;13.828;2024-03-06T14:29:52;11.40;63.10
9919;DHT22;4998;51.024;13.828;2024-03-06T14:32:19;11.40;63.30
9919;DHT22;4998;51.024;13.828;2024-03-06T14:34:46;11.40;63.40
9919;DHT22;4998;51.024;13.828;2024-03-06T14:37:15;11.50;63.60
9919;DHT22;4998;51.024;13.828;2024-03-06T14:39:42;11.50;63.40
9919;DHT22;4998;51.024;13.828;2024-03-06T14:42:10;11.50;63.60
9919;DHT22;4998;51.024;13.828;2024-03-06T14:44:37;11.60;63.80
9919;DHT22;4998;51.024;13.828;2024-03-06T14:47:04;11.60;63.90
9919;DHT22;4998;51.024;13.828;2024-03-06T14:49:33;11.60;63.80
9919;DHT22;4998;51.024;13.828;2024-03-06T14:52:00;11.60;63.50
9919;DHT22;4998;51.024;13.828;2024-03-06T14:54:30;11.60;63.10
9919;DHT22;4998;51.024;13.828;2024-03-06T14:56:57;11.60;62.80
9919;DHT22;4998;51.024;13.828;2024-03-06T14:59:24;11.60;62.90
9919;DHT22;4998;51.024;13.828;2024-03-06T15:01:51;11.60;62.90
9919;DHT22;4998;51.024;13.828;2024-03-06T15:04:18;11.60;63.00
9919;DHT22;4998;51.024;13.828;2024-03-06T15:06:46;11.60;63.00
9919;DHT22;4998;51.024;13.828;2024-03-06T15:09:13;11.60;63.00
9919;DHT22;4998;51.024;13.828;2024-03-06T15:11:43;11.60;62.80
9919;DHT22;4998;51.024;13.828;2024-03-06T15:14:10;11.60;62.70
9919;DHT22;4998;51.024;13.828;2024-03-06T15:16:37;11.60;62.50
9919;DHT22;4998;51.024;13.828;2024-03-06T15:19:05;11.60;62.30
9919;DHT22;4998;51.024;13.828;2024-03-06T15:21:32;11.60;62.00
9919;DHT22;4998;51.024;13.828;2024-03-06T15:23:59;11.60;61.90
9919;DHT22;4998;51.024;13.828;2024-03-06T15:26:26;11.60;61.80
9919;DHT22;4998;51.024;13.828;2024-03-06T15:28:55;11.60;61.80
9919;DHT22;4998;51.024;13.828;2024-03-06T15:31:22;11.50;61.80
9919;DHT22;4998;51.024;13.828;2024-03-06T15:33:51;11.50;62.00
9919;DHT22;4998;51.024;13.828;2024-03-06T15:36:18;11.50;62.00
9919;DHT22;4998;51.024;13.828;2024-03-06T15:38:45;11.50;61.90
9919;DHT22;4998;51.024;13.828;2024-03-06T15:41:12;11.50;61.30
9919;DHT22;4998;51.024;13.828;2024-03-06T15:43:39;11.50;60.90
9919;DHT22;4998;51.024;13.828;2024-03-06T15:46:07;11.40;60.20
9919;DHT22;4998;51.024;13.828;2024-03-06T15:48:35;11.50;59.90
9919;DHT22;4998;51.024;13.828;2024-03-06T15:51:02;11.40;59.60
9919;DHT22;4998;51.024;13.828;2024-03-06T15:53:29;11.40;59.50
9919;DHT22;4998;51.024;13.828;2024-03-06T15:55:57;11.40;59.40
9919;DHT22;4998;51.024;13.828;2024-03-06T15:58:25;11.40;59.40